createdAt,value
2018-08-03T00:04:27.447Z,95.90
2018-08-03T00:11:50.971Z,95.50
2018-08-03T00:14:18.904Z,95.70
2018-08-03T00:16:46.922Z,95.70
2018-08-03T00:19:14.835Z,95.70
2018-08-03T00:21:42.780Z,95.40
2018-08-03T00:24:10.681Z,95.40
2018-08-03T00:26:38.649Z,95.50
2018-08-03T00:29:06.556Z,95.90
2018-08-03T00:31:35.071Z,95.80
2018-08-03T00:34:03.216Z,95.80
2018-08-03T00:36:32.192Z,95.90
2018-08-03T00:39:00.106Z,95.90
2018-08-03T00:41:27.996Z,95.70
2018-08-03T00:43:56.902Z,95.70
2018-08-03T00:48:53.392Z,95.40
2018-08-03T00:51:21.300Z,95.50
2018-08-03T00:53:49.223Z,95.60
2018-08-03T00:56:17.211Z,95.70
2018-08-03T00:58:45.137Z,95.80
2018-08-03T01:01:13.687Z,95.90
2018-08-03T01:03:41.641Z,95.70
2018-08-03T01:06:10.192Z,95.80
2018-08-03T01:08:38.905Z,95.70
2018-08-03T01:11:06.929Z,95.50
2018-08-03T01:13:34.913Z,95.40
2018-08-03T01:16:03.851Z,95.50
2018-08-03T01:18:32.600Z,95.60
2018-08-03T01:21:01.194Z,95.60
2018-08-03T01:23:30.023Z,95.60
2018-08-03T01:25:57.983Z,95.70
2018-08-03T01:28:26.684Z,95.80
2018-08-03T01:30:55.241Z,95.70
2018-08-03T01:33:23.384Z,95.80
2018-08-03T01:35:52.300Z,95.80
2018-08-03T01:38:20.237Z,95.70
2018-08-03T01:40:48.156Z,95.80
2018-08-03T01:43:16.598Z,95.90
2018-08-03T01:45:44.509Z,95.90
2018-08-03T01:48:12.435Z,95.60
2018-08-03T01:50:40.425Z,95.60
2018-08-03T01:53:08.335Z,95.40
2018-08-03T01:58:04.105Z,95.60
2018-08-03T02:00:32.715Z,95.50
2018-08-03T02:03:01.678Z,95.60
2018-08-03T02:05:29.634Z,95.80
2018-08-03T02:07:57.621Z,95.80
2018-08-03T02:10:25.568Z,95.60
2018-08-03T02:12:54.256Z,95.50
2018-08-03T02:15:22.634Z,95.60
2018-08-03T02:17:51.529Z,95.70
2018-08-03T02:20:19.450Z,95.60
2018-08-03T02:22:47.368Z,95.60
2018-08-03T02:25:16.712Z,95.80
2018-08-03T02:27:45.192Z,95.90
2018-08-03T02:30:13.097Z,95.80
2018-08-03T02:35:09.648Z,95.70
2018-08-03T02:40:05.471Z,96.00
2018-08-03T02:42:35.031Z,95.90
2018-08-03T02:45:03.101Z,95.80
2018-08-03T02:47:31.046Z,95.90
2018-08-03T02:52:26.707Z,95.70
2018-08-03T02:54:54.629Z,96.00
2018-08-03T02:59:51.475Z,95.70
2018-08-03T03:02:19.625Z,95.80
2018-08-03T03:04:48.622Z,96.00
2018-08-03T03:07:16.604Z,95.70
2018-08-03T03:09:45.019Z,95.80
2018-08-03T03:12:14.240Z,95.70
2018-08-03T03:14:42.160Z,95.80
2018-08-03T03:17:10.119Z,95.80
2018-08-03T03:19:38.158Z,95.90
2018-08-03T03:22:06.938Z,95.90
2018-08-03T03:24:35.530Z,95.90
2018-08-03T03:27:04.556Z,95.90
2018-08-03T03:29:33.083Z,95.80
2018-08-03T03:32:01.727Z,95.80
2018-08-03T03:34:31.874Z,95.80
2018-08-03T03:37:00.178Z,95.70
2018-08-03T03:39:29.870Z,95.70
2018-08-03T03:41:59.891Z,95.80
2018-08-03T03:44:28.722Z,95.90
2018-08-03T03:46:56.871Z,95.80
2018-08-03T03:51:56.058Z,95.60
2018-08-03T03:54:25.087Z,95.80
2018-08-03T04:04:21.550Z,96.10
2018-08-03T04:09:22.807Z,96.20
2018-08-03T04:11:53.413Z,96.10
2018-08-03T04:14:23.707Z,96.10
2018-08-03T04:16:53.239Z,96.00
2018-08-03T04:21:51.651Z,95.70
2018-08-03T04:24:20.933Z,95.90
2018-08-03T04:26:49.572Z,96.10
2018-08-03T04:29:22.342Z,96.10
2018-08-03T04:31:52.228Z,96.10
2018-08-03T04:34:21.609Z,96.20
2018-08-03T04:36:51.735Z,96.20
2018-08-03T04:39:23.367Z,96.20
2018-08-03T04:41:54.138Z,96.20
2018-08-03T04:44:24.427Z,96.30
2018-08-03T04:46:53.831Z,96.30
2018-08-03T04:49:23.584Z,96.30
2018-08-03T04:51:53.385Z,96.40
2018-08-03T04:54:24.286Z,96.40
2018-08-03T04:56:53.912Z,96.50
2018-08-03T04:59:22.800Z,96.50
2018-08-03T05:01:51.482Z,96.50
2018-08-03T05:04:24.958Z,96.60
2018-08-03T05:06:53.663Z,96.60
2018-08-03T05:09:22.301Z,96.60
2018-08-03T05:11:50.993Z,96.60
2018-08-03T05:14:18.916Z,96.60
2018-08-03T05:16:47.000Z,96.60
2018-08-03T05:19:14.991Z,96.60
2018-08-03T05:21:43.692Z,96.80
2018-08-03T05:24:11.694Z,96.80
2018-08-03T05:26:40.338Z,96.90
2018-08-03T05:29:08.299Z,96.90
2018-08-03T05:34:04.091Z,97.00
2018-08-03T05:36:32.791Z,96.90
2018-08-03T05:39:01.914Z,97.20
2018-08-03T05:41:30.401Z,96.90
2018-08-03T05:43:58.964Z,96.90
2018-08-03T05:46:26.889Z,97.10
2018-08-03T05:48:54.808Z,96.70
2018-08-03T05:51:22.799Z,96.40
2018-08-03T05:53:50.741Z,96.10
2018-08-03T05:56:18.702Z,95.50
2018-08-03T06:03:42.212Z,94.40
2018-08-03T06:06:10.192Z,94.10
2018-08-03T06:11:07.639Z,93.00
2018-08-03T06:13:35.519Z,92.90
2018-08-03T06:16:04.142Z,92.10
2018-08-03T06:18:33.328Z,92.10
2018-08-03T06:23:29.168Z,91.80
2018-08-03T06:28:26.257Z,91.90
2018-08-03T06:30:54.112Z,91.70
2018-08-03T06:33:21.980Z,91.70
2018-08-03T06:35:50.495Z,91.40
2018-08-03T06:38:18.947Z,91.40
2018-08-03T06:40:46.882Z,91.30
2018-08-03T06:45:44.151Z,90.80
2018-08-03T06:48:12.764Z,90.40
2018-08-03T06:50:40.693Z,90.20
2018-08-03T06:55:36.429Z,90.10
2018-08-03T06:58:04.392Z,90.00
2018-08-03T07:00:33.444Z,90.40
2018-08-03T07:03:01.359Z,88.60
2018-08-03T07:05:29.297Z,89.20
2018-08-03T07:07:57.204Z,89.00
2018-08-03T07:10:25.140Z,90.00
2018-08-03T07:12:53.680Z,89.50
2018-08-03T07:15:21.939Z,88.10
2018-08-03T07:17:50.489Z,87.40
2018-08-03T07:20:18.769Z,87.50
2018-08-03T07:22:46.690Z,86.80
2018-08-03T07:25:14.643Z,87.50
2018-08-03T07:30:10.374Z,87.30
2018-08-03T07:35:06.260Z,85.60
2018-08-03T07:37:34.177Z,86.30
2018-08-03T07:42:29.904Z,86.20
2018-08-03T07:44:57.892Z,85.60
2018-08-03T07:47:25.810Z,85.50
2018-08-03T07:49:53.694Z,85.80
2018-08-03T07:52:21.601Z,84.80
2018-08-03T07:54:50.739Z,84.50
2018-08-03T07:57:18.683Z,85.40
2018-08-03T07:59:47.156Z,85.60
2018-08-03T08:02:15.109Z,85.20
2018-08-03T08:07:11.674Z,86.80
2018-08-03T08:09:39.621Z,87.40
2018-08-03T08:12:07.518Z,86.70
2018-08-03T08:14:35.425Z,85.60
2018-08-03T08:17:03.400Z,84.70
2018-08-03T08:19:31.315Z,85.50
2018-08-03T08:21:59.236Z,85.20
2018-08-03T08:24:27.234Z,86.10
2018-08-03T08:26:55.167Z,86.50
2018-08-03T08:29:23.587Z,84.30
2018-08-03T08:36:48.586Z,83.40
2018-08-03T08:39:16.510Z,83.10
2018-08-03T08:41:44.586Z,82.60
2018-08-03T08:44:13.357Z,81.50
2018-08-03T08:49:10.993Z,81.50
2018-08-03T08:51:38.999Z,82.30
2018-08-03T08:56:34.873Z,81.80
2018-08-03T08:59:03.550Z,80.90
2018-08-03T09:01:31.569Z,80.70
2018-08-03T09:03:59.493Z,81.80
2018-08-03T09:06:29.506Z,78.80
2018-08-03T09:08:58.086Z,74.50
2018-08-03T09:11:26.015Z,74.90
2018-08-03T09:13:53.926Z,75.00
2018-08-03T09:16:21.843Z,72.30
2018-08-03T09:18:49.901Z,74.40
2018-08-03T09:21:18.477Z,73.60
2018-08-03T09:23:46.375Z,73.80
2018-08-03T09:26:14.290Z,73.90
2018-08-03T09:28:42.291Z,75.80
2018-08-03T09:31:10.276Z,71.80
2018-08-03T09:33:38.153Z,72.90
2018-08-03T09:36:06.140Z,71.00
2018-08-03T09:41:07.891Z,72.70
2018-08-03T09:48:31.522Z,75.00
2018-08-03T09:50:59.599Z,73.60
2018-08-03T09:53:27.589Z,72.90
2018-08-03T09:55:56.172Z,74.80
2018-08-03T09:58:24.768Z,80.20
2018-08-03T10:00:55.503Z,81.60
2018-08-03T10:03:24.534Z,85.90
2018-08-03T10:05:52.423Z,88.10
2018-08-03T10:08:20.593Z,89.30
2018-08-03T10:10:49.377Z,90.00
2018-08-03T10:13:17.309Z,89.10
2018-08-03T10:15:45.253Z,89.60
2018-08-03T10:18:14.137Z,88.70
2018-08-03T10:20:42.437Z,90.60
2018-08-03T10:23:10.362Z,91.20
2018-08-03T10:30:33.925Z,89.40
2018-08-03T10:33:01.848Z,88.70
2018-08-03T10:37:57.546Z,86.90
2018-08-03T10:40:25.511Z,82.70
2018-08-03T10:42:53.469Z,83.10
2018-08-03T10:45:21.322Z,80.90
2018-08-03T10:47:49.233Z,80.10
2018-08-03T10:52:45.206Z,81.20
2018-08-03T10:55:13.210Z,79.80
2018-08-03T10:57:41.157Z,79.10
2018-08-03T11:00:10.186Z,79.90
2018-08-03T11:02:38.308Z,79.90
2018-08-03T11:05:06.264Z,78.60
2018-08-03T11:07:34.277Z,77.70
2018-08-03T11:10:02.200Z,79.20
2018-08-03T11:12:30.101Z,82.60
2018-08-03T11:14:57.982Z,80.20
2018-08-03T11:17:25.916Z,80.60
2018-08-03T11:19:54.320Z,81.50
2018-08-03T11:22:22.230Z,81.70
2018-08-03T11:24:50.137Z,80.60
2018-08-03T11:27:18.049Z,79.70
2018-08-03T11:29:45.940Z,79.60
2018-08-03T11:34:43.050Z,78.00
2018-08-03T11:37:10.970Z,78.00
2018-08-03T11:39:38.929Z,77.50
2018-08-03T11:42:07.029Z,75.90
2018-08-03T11:47:04.022Z,76.00
2018-08-03T11:49:31.939Z,74.90
2018-08-03T11:51:59.885Z,76.40
2018-08-03T11:54:27.811Z,74.70
2018-08-03T11:56:55.758Z,74.20
2018-08-03T12:04:19.336Z,76.50
2018-08-03T12:06:47.296Z,77.60
2018-08-03T12:09:15.924Z,74.90
2018-08-03T12:11:45.480Z,73.00
2018-08-03T12:14:13.384Z,72.40
2018-08-03T12:16:41.326Z,72.00
2018-08-03T12:19:09.266Z,69.30
2018-08-03T12:21:37.810Z,73.00
2018-08-03T12:26:33.566Z,68.10
2018-08-03T12:29:01.536Z,68.90
2018-08-03T12:31:29.526Z,69.30
2018-08-03T12:33:57.447Z,69.60
2018-08-03T12:36:25.429Z,66.50
2018-08-03T12:38:54.092Z,65.60
2018-08-03T12:41:22.101Z,67.40
2018-08-03T12:43:52.740Z,67.20
2018-08-03T12:46:22.361Z,65.10
2018-08-03T12:48:50.279Z,66.90
2018-08-03T12:51:18.315Z,67.00
2018-08-03T12:53:46.264Z,66.70
2018-08-03T12:56:14.201Z,67.70
2018-08-03T13:01:09.928Z,65.30
2018-08-03T13:03:37.795Z,65.60
2018-08-03T13:06:06.000Z,62.90
2018-08-03T13:08:34.131Z,61.60
2018-08-03T13:11:01.917Z,64.10
2018-08-03T13:15:57.654Z,62.10
2018-08-03T13:20:54.133Z,65.20
2018-08-03T13:23:22.088Z,64.40
2018-08-03T13:25:49.989Z,63.60
2018-08-03T13:28:17.914Z,63.20
2018-08-03T13:30:45.897Z,61.10
2018-08-03T13:33:13.833Z,61.30
2018-08-03T13:35:41.786Z,63.80
2018-08-03T13:38:09.699Z,64.00
2018-08-03T13:40:37.890Z,61.20
2018-08-03T13:43:07.111Z,61.60
2018-08-03T13:45:35.630Z,56.90
2018-08-03T13:48:04.210Z,56.90
2018-08-03T13:50:32.119Z,57.10
2018-08-03T13:52:59.987Z,56.20
2018-08-03T13:55:27.911Z,56.60
2018-08-03T13:57:56.488Z,57.00
2018-08-03T14:00:24.419Z,55.50
2018-08-03T14:02:52.403Z,58.40
2018-08-03T14:05:20.317Z,56.40
2018-08-03T14:12:43.763Z,51.20
2018-08-03T14:15:11.688Z,51.40
2018-08-03T14:20:07.838Z,53.30
2018-08-03T14:22:35.804Z,55.40
2018-08-03T14:25:03.943Z,58.20
2018-08-03T14:27:31.897Z,59.20
2018-08-03T14:29:59.917Z,59.20
2018-08-03T14:34:56.238Z,56.50
2018-08-03T14:37:24.323Z,53.00
2018-08-03T14:44:49.218Z,52.30
2018-08-03T14:47:17.772Z,53.50
2018-08-03T14:49:45.923Z,53.00
2018-08-03T14:54:41.613Z,46.70
2018-08-03T14:57:09.556Z,48.10
2018-08-03T14:59:37.448Z,47.50
2018-08-03T15:02:05.617Z,47.60
2018-08-03T15:04:33.567Z,47.50
2018-08-03T15:07:01.560Z,47.60
2018-08-03T15:09:29.536Z,47.50
2018-08-03T15:11:57.467Z,50.40
2018-08-03T15:14:25.430Z,51.80
2018-08-03T15:16:53.339Z,52.70
2018-08-03T15:19:21.269Z,54.80
2018-08-03T15:21:49.227Z,55.20
2018-08-03T15:24:17.142Z,58.40
2018-08-03T15:26:45.118Z,55.20
2018-08-03T15:29:13.093Z,56.80
2018-08-03T15:31:40.960Z,54.60
2018-08-03T15:34:08.930Z,54.40
2018-08-03T15:36:36.886Z,53.10
2018-08-03T15:39:07.638Z,54.40
2018-08-03T15:41:35.537Z,57.50
2018-08-03T15:46:31.292Z,56.20
2018-08-03T15:48:59.224Z,55.10
2018-08-03T15:51:27.266Z,56.50
2018-08-03T15:53:55.381Z,57.10
2018-08-03T15:56:23.318Z,56.40
2018-08-03T15:58:51.235Z,54.70
2018-08-03T16:01:19.188Z,54.00
2018-08-03T16:06:14.873Z,51.00
2018-08-03T16:08:42.788Z,48.80
2018-08-03T16:13:39.202Z,51.20
2018-08-03T16:16:07.755Z,49.60
2018-08-03T16:18:35.686Z,49.30
2018-08-03T16:23:31.993Z,47.60
2018-08-03T16:26:00.605Z,47.20
2018-08-03T16:30:57.036Z,45.10
2018-08-03T16:33:25.539Z,43.90
2018-08-03T16:35:54.439Z,44.30
2018-08-03T16:40:51.079Z,43.50
2018-08-03T16:43:19.072Z,43.60
2018-08-03T16:48:14.841Z,43.70
2018-08-03T16:50:43.555Z,43.10
2018-08-03T16:53:11.510Z,42.70
2018-08-03T16:55:39.386Z,43.00
2018-08-03T16:58:08.813Z,42.60
2018-08-03T17:03:04.509Z,42.80
2018-08-03T17:05:32.391Z,43.20
2018-08-03T17:10:29.192Z,43.60
2018-08-03T17:12:57.968Z,44.20
2018-08-03T17:17:53.652Z,44.60
2018-08-03T17:20:21.653Z,45.10
2018-08-03T17:22:49.548Z,45.60
2018-08-03T17:25:17.516Z,45.40
2018-08-03T17:35:08.949Z,46.60
2018-08-03T17:37:37.150Z,46.50
2018-08-03T17:40:05.355Z,45.90
2018-08-03T17:42:33.328Z,46.70
2018-08-03T17:45:01.301Z,48.90
2018-08-03T17:47:29.230Z,49.70
2018-08-03T17:54:53.068Z,52.10
2018-08-03T17:57:21.776Z,52.30
2018-08-03T17:59:50.306Z,53.00
2018-08-03T18:02:18.216Z,52.90
2018-08-03T18:04:46.085Z,53.70
2018-08-03T18:07:14.244Z,53.40
2018-08-03T18:12:10.445Z,53.60
2018-08-03T18:14:38.370Z,53.00
2018-08-03T18:17:06.274Z,52.60
2018-08-03T18:19:34.250Z,53.30
2018-08-03T18:22:02.164Z,53.20
2018-08-03T18:24:30.125Z,53.90
2018-08-03T18:29:27.090Z,54.20
2018-08-03T18:31:55.016Z,54.30
2018-08-03T18:34:22.909Z,54.80
2018-08-03T18:36:50.837Z,55.40
2018-08-03T18:39:19.351Z,54.90
2018-08-03T18:41:48.439Z,55.10
2018-08-03T18:44:16.384Z,54.90
2018-08-03T18:46:44.325Z,55.30
2018-08-03T18:49:12.369Z,54.80
2018-08-03T18:54:08.096Z,55.20
2018-08-03T18:56:36.595Z,55.80
2018-08-03T19:01:32.345Z,63.80
2018-08-03T19:04:00.613Z,64.60
2018-08-03T19:11:24.156Z,67.20
2018-08-03T19:13:52.403Z,68.20
2018-08-03T19:16:20.355Z,68.70
2018-08-03T19:18:48.871Z,69.60
2018-08-03T19:26:44.510Z,70.00
2018-08-03T19:29:12.479Z,70.00
2018-08-03T19:31:40.391Z,70.70
2018-08-03T19:34:08.289Z,70.40
2018-08-03T19:36:37.487Z,69.60
2018-08-03T19:39:08.460Z,69.20
2018-08-03T19:41:36.929Z,69.00
2018-08-03T19:44:06.007Z,69.10
2018-08-03T19:49:02.387Z,69.70
2018-08-03T19:51:30.313Z,69.50
2018-08-03T19:56:25.995Z,72.10
2018-08-03T20:01:22.313Z,75.50
2018-08-03T20:03:50.755Z,76.10
2018-08-03T20:06:18.856Z,77.10
2018-08-03T20:08:46.816Z,77.50
2018-08-03T20:13:43.716Z,79.20
2018-08-03T20:16:11.545Z,80.40
2018-08-03T20:21:07.451Z,79.80
2018-08-03T20:23:35.487Z,79.10
2018-08-03T20:28:33.416Z,78.50
2018-08-03T20:31:01.967Z,78.70
2018-08-03T20:33:29.919Z,78.90
2018-08-03T20:35:57.882Z,78.70
2018-08-03T20:38:25.842Z,78.00
2018-08-03T20:40:53.769Z,78.50
2018-08-03T20:43:21.692Z,78.70
2018-08-03T20:45:49.598Z,78.20
2018-08-03T20:48:17.500Z,77.90
2018-08-03T20:50:45.932Z,77.80
2018-08-03T20:53:13.796Z,77.20
2018-08-03T20:55:41.743Z,76.90
2018-08-03T20:58:09.675Z,76.50
2018-08-03T21:00:37.589Z,76.40
2018-08-03T21:03:05.715Z,76.90
2018-08-03T21:05:33.622Z,77.10
2018-08-03T21:08:01.888Z,78.70
2018-08-03T21:10:29.844Z,78.80
2018-08-03T21:22:48.946Z,81.00
2018-08-03T21:25:16.913Z,81.10
2018-08-03T21:27:45.820Z,81.20
2018-08-03T21:30:13.773Z,81.20
2018-08-03T21:42:33.782Z,81.60
2018-08-03T21:47:30.300Z,82.50
2018-08-03T21:49:58.238Z,82.90
2018-08-03T21:52:26.147Z,83.40
2018-08-03T21:57:22.089Z,83.40
2018-08-03T21:59:50.005Z,82.70
2018-08-03T22:02:17.926Z,83.40
2018-08-03T22:04:47.547Z,83.30
2018-08-03T22:07:16.676Z,82.90
2018-08-03T22:09:44.570Z,82.50
2018-08-03T22:12:12.506Z,82.20
2018-08-03T22:14:41.735Z,82.70
2018-08-03T22:17:09.629Z,83.10
2018-08-03T22:19:38.398Z,83.30
2018-08-03T22:22:06.306Z,83.20
2018-08-03T22:24:34.245Z,83.30
2018-08-03T22:27:02.254Z,83.70
2018-08-03T22:29:30.782Z,83.50
2018-08-03T22:31:59.487Z,83.50
2018-08-03T22:36:55.109Z,84.00
2018-08-03T22:39:23.060Z,84.40
2018-08-03T22:41:51.028Z,84.40
2018-08-03T22:44:19.016Z,84.80
2018-08-03T22:46:46.857Z,85.00
2018-08-03T22:49:14.736Z,85.50
2018-08-03T22:51:42.633Z,86.20
2018-08-03T22:54:10.521Z,86.90
2018-08-03T22:56:38.444Z,87.40
2018-08-03T22:59:06.987Z,87.40
2018-08-03T23:01:34.905Z,87.90
2018-08-03T23:04:02.879Z,87.90
2018-08-03T23:06:30.774Z,88.00
2018-08-03T23:11:27.142Z,88.10
2018-08-03T23:13:56.065Z,87.90
2018-08-03T23:16:24.717Z,87.90
2018-08-03T23:18:52.582Z,87.30
2018-08-03T23:21:20.547Z,86.80
2018-08-03T23:26:16.806Z,86.80
2018-08-03T23:28:44.661Z,86.90
2018-08-03T23:31:13.829Z,86.80
2018-08-03T23:33:42.132Z,87.00
2018-08-03T23:43:33.181Z,88.70
2018-08-03T23:46:01.152Z,88.90
2018-08-03T23:50:56.777Z,89.80
2018-08-03T23:53:25.455Z,90.00
2018-08-03T23:55:53.380Z,90.00
2018-08-03T23:58:21.295Z,89.20
